This is the latest recevied weather packets stored in our database for station/object KE7JGM-4. If no packets are shown the sender has not sent any weather packets the latest 10 day(s).
| Time | Temp. | Humidity | Pressure | Rain* | Wind** | Luminosity | Snow |
|---|---|---|---|---|---|---|---|
| 1777638617 | 5.56° C | 42% | 1016.6 hPa | 0 mm | - | - | - |
| 1777634117 | 6.67° C | 36% | 1016.8 hPa | 0 mm | - | - | - |
| 1777633217 | 7.22° C | 35% | 1016.7 hPa | 0 mm | - | - | - |
| 1777629617 | 7.78° C | 32% | 1017 hPa | 0 mm | - | - | - |
| 1777626917 | 8.33° C | 30% | 1017.3 hPa | 0 mm | - | - | - |
| 1777619717 | 13.89° C | 21% | 1018.2 hPa | 0 mm | - | - | - |
| 1777616117 | 13.89° C | 21% | 1017.4 hPa | 0 mm | - | - | - |
| 1777611617 | 15° C | 23% | 1016.9 hPa | 0 mm | - | - | - |
| 1777607117 | 15° C | 25% | 1015.4 hPa | 0 mm | - | - | - |
| 1777603537 | 17.22° C | 20% | 1014.6 hPa | 0 mm | - | - | - |
| 1777602637 | 17.78° C | 20% | 1014.6 hPa | 0 mm | - | - | - |
| 1777599917 | 19.44° C | 17% | 1013.4 hPa | 0 mm | - | - | - |
| 1777598117 | 20° C | 17% | 1013 hPa | 0 mm | - | - | - |
| 1777593637 | 20° C | 16% | 1013.4 hPa | 0 mm | - | - | - |
| 1777576516 | 20° C | 17% | 1018.2 hPa | 0 mm | - | - | - |
| 1777574716 | 18.89° C | 17% | 1018.4 hPa | 0 mm | - | - | - |
| 1777561216 | 13.89° C | 23% | 1019.5 hPa | 0 mm | - | - | - |
| 1777558516 | 9.44° C | 30% | 1018.5 hPa | 0 mm | - | - | - |
| 1777550417 | 6.67° C | 31% | 1018.4 hPa | 0 mm | - | - | - |
| 1777545017 | 7.78° C | 28% | 1019.3 hPa | 0 mm | - | - | - |
| 1777531517 | 11.67° C | 20% | 1021.9 hPa | 0 mm | - | - | - |
| 1777521617 | 15° C | 18% | 1021.9 hPa | 0 mm | - | - | - |
| 1777510837 | 18.33° C | 16% | 1018.3 hPa | 0 mm | - | - | - |
| 1777507217 | 20° C | 13% | 1019 hPa | 0 mm | - | - | - |
| 1777505417 | 20° C | 12% | 1018.8 hPa | 0 mm | - | - | - |
* Rain latest hour (hover to see other rain measurements)
** Current wind speed in m/s (hover to see current wind gust speed)